TimeEST,TemperatureF,Dew PointF,Humidity,Sea Level PressureIn,VisibilityMPH,Wind Direction,Wind SpeedMPH,Gust SpeedMPH,PrecipitationIn,Events,Conditions,WindDirDegrees,DateUTC
12:15 AM,26.6,25.5,96,30.47,10.0,Calm,Calm,-,N/A,,Clear,0,2013-11-29 05:15:00
12:35 AM,27.0,25.3,94,30.47,10.0,Calm,Calm,-,N/A,,Clear,0,2013-11-29 05:35:00
12:55 AM,27.7,25.3,91,30.47,10.0,Calm,Calm,-,N/A,,Clear,0,2013-11-29 05:55:00
1:15 AM,25.9,23.7,92,30.47,10.0,Calm,Calm,-,N/A,,Clear,0,2013-11-29 06:15:00
1:35 AM,25.2,23.0,91,30.47,10.0,Calm,Calm,-,N/A,,Clear,0,2013-11-29 06:35:00
1:55 AM,26.1,24.8,95,30.46,10.0,Calm,Calm,-,N/A,,Clear,0,2013-11-29 06:55:00
2:15 AM,26.4,24.6,93,30.46,10.0,Calm,Calm,-,N/A,,Clear,0,2013-11-29 07:15:00
2:35 AM,25.7,24.3,94,30.47,10.0,Calm,Calm,-,N/A,,Clear,0,2013-11-29 07:35:00
2:55 AM,26.2,24.3,92,30.47,10.0,Calm,Calm,-,N/A,,Clear,0,2013-11-29 07:55:00
3:15 AM,26.1,24.3,93,30.47,10.0,Calm,Calm,-,N/A,,Clear,0,2013-11-29 08:15:00
3:35 AM,26.2,24.6,94,30.47,10.0,Calm,Calm,-,N/A,,Clear,0,2013-11-29 08:35:00
3:55 AM,25.7,24.1,94,30.47,10.0,Calm,Calm,-,N/A,,Clear,0,2013-11-29 08:55:00
4:15 AM,26.1,24.8,95,30.47,10.0,Calm,Calm,-,N/A,,Clear,0,2013-11-29 09:15:00
4:35 AM,24.4,23.0,94,30.47,10.0,Calm,Calm,-,N/A,,Clear,0,2013-11-29 09:35:00
4:55 AM,25.3,24.1,95,30.47,10.0,Calm,Calm,-,N/A,,Clear,0,2013-11-29 09:55:00
5:15 AM,25.3,23.9,94,30.47,10.0,Calm,Calm,-,N/A,,Clear,0,2013-11-29 10:15:00
5:35 AM,22.8,21.6,95,30.47,10.0,Calm,Calm,-,N/A,,Clear,0,2013-11-29 10:35:00
5:55 AM,24.6,23.9,97,30.47,10.0,Calm,Calm,-,N/A,,Clear,0,2013-11-29 10:55:00
6:15 AM,24.4,22.6,93,30.48,10.0,Calm,Calm,-,N/A,,Clear,0,2013-11-29 11:15:00
6:35 AM,23.7,21.6,91,30.48,10.0,Calm,Calm,-,N/A,,Clear,0,2013-11-29 11:35:00
6:55 AM,23.9,22.3,94,30.49,10.0,Calm,Calm,-,N/A,,Clear,0,2013-11-29 11:55:00
7:15 AM,24.4,22.8,94,30.50,10.0,Calm,Calm,-,N/A,,Clear,0,2013-11-29 12:15:00
7:35 AM,24.1,22.8,95,30.50,10.0,Calm,Calm,-,N/A,,Clear,0,2013-11-29 12:35:00
7:55 AM,24.4,22.5,92,30.50,10.0,Calm,Calm,-,N/A,,Clear,0,2013-11-29 12:55:00
8:15 AM,27.5,25.5,92,30.51,10.0,Calm,Calm,-,N/A,,Clear,0,2013-11-29 13:15:00
8:35 AM,30.0,28.2,93,30.51,10.0,Calm,Calm,-,N/A,,Clear,0,2013-11-29 13:35:00
8:55 AM,34.9,28.4,77,30.51,10.0,Calm,Calm,-,N/A,,Clear,0,2013-11-29 13:55:00
9:15 AM,37.6,25.5,62,30.52,10.0,Calm,Calm,-,N/A,,Clear,0,2013-11-29 14:15:00
9:35 AM,39.9,25.5,56,30.53,10.0,Calm,Calm,-,N/A,,Clear,0,2013-11-29 14:35:00
9:55 AM,42.1,23.5,48,30.54,10.0,NNE,5.8,-,N/A,,Clear,30,2013-11-29 14:55:00
10:15 AM,44.2,23.0,43,30.53,10.0,North,3.5,-,N/A,,Clear,10,2013-11-29 15:15:00
10:35 AM,46.0,23.0,40,30.54,10.0,NE,3.5,-,N/A,,Clear,40,2013-11-29 15:35:00
10:55 AM,48.2,22.5,36,30.53,10.0,NE,3.5,-,N/A,,Clear,40,2013-11-29 15:55:00
11:15 AM,49.6,21.0,32,30.52,10.0,East,3.5,-,N/A,,Clear,80,2013-11-29 16:15:00
11:35 AM,50.9,20.1,30,30.51,10.0,Calm,Calm,-,N/A,,Clear,0,2013-11-29 16:35:00
11:55 AM,52.5,20.5,29,30.50,10.0,North,4.6,-,N/A,,Clear,360,2013-11-29 16:55:00
12:15 PM,53.8,17.6,24,30.49,10.0,NNW,4.6,-,N/A,,Clear,340,2013-11-29 17:15:00
12:35 PM,55.0,19.0,24,30.49,10.0,North,3.5,-,N/A,,Clear,360,2013-11-29 17:35:00
12:55 PM,55.9,18.0,23,30.48,10.0,North,3.5,-,N/A,,Clear,10,2013-11-29 17:55:00
1:15 PM,56.7,16.3,21,30.46,10.0,North,3.5,-,N/A,,Clear,350,2013-11-29 18:15:00
1:35 PM,57.2,16.7,21,30.46,10.0,East,3.5,-,N/A,,Clear,80,2013-11-29 18:35:00
1:55 PM,59.0,16.5,19,30.44,10.0,North,3.5,-,N/A,,Clear,350,2013-11-29 18:55:00
2:15 PM,59.4,13.3,16,30.44,10.0,Calm,Calm,-,N/A,,Clear,0,2013-11-29 19:15:00
2:35 PM,59.5,13.8,17,30.43,10.0,Calm,Calm,-,N/A,,Clear,0,2013-11-29 19:35:00
2:55 PM,60.1,14.9,17,30.43,10.0,North,4.6,-,N/A,,Clear,360,2013-11-29 19:55:00
3:15 PM,60.3,12.2,15,30.43,10.0,Calm,Calm,-,N/A,,Clear,0,2013-11-29 20:15:00
3:35 PM,60.1,12.0,15,30.42,10.0,Calm,Calm,-,N/A,,Clear,0,2013-11-29 20:35:00
3:55 PM,60.1,13.6,16,30.43,10.0,Calm,Calm,-,N/A,,Clear,0,2013-11-29 20:55:00
4:15 PM,60.3,15.6,18,30.44,10.0,North,4.6,-,N/A,,Clear,350,2013-11-29 21:15:00
4:35 PM,59.9,16.5,18,30.44,10.0,North,3.5,-,N/A,,Clear,360,2013-11-29 21:35:00
4:55 PM,58.8,18.1,21,30.44,10.0,North,3.5,-,N/A,,Clear,350,2013-11-29 21:55:00
5:15 PM,55.4,21.0,26,30.44,10.0,Calm,Calm,-,N/A,,Clear,0,2013-11-29 22:15:00
5:35 PM,49.6,25.0,38,30.44,10.0,Calm,Calm,-,N/A,,Clear,0,2013-11-29 22:35:00
5:55 PM,45.5,28.2,51,30.44,10.0,Calm,Calm,-,N/A,,Clear,0,2013-11-29 22:55:00
6:15 PM,43.3,28.0,55,30.44,10.0,Calm,Calm,-,N/A,,Clear,0,2013-11-29 23:15:00
6:35 PM,41.5,29.3,62,30.45,10.0,Calm,Calm,-,N/A,,Clear,0,2013-11-29 23:35:00
6:55 PM,38.5,28.4,67,30.45,10.0,Calm,Calm,-,N/A,,Clear,0,2013-11-29 23:55:00
7:15 PM,38.8,28.4,66,30.45,10.0,Calm,Calm,-,N/A,,Clear,0,2013-11-30 00:15:00
7:35 PM,35.6,27.9,73,30.46,10.0,Calm,Calm,-,N/A,,Clear,0,2013-11-30 00:35:00
7:55 PM,35.1,27.7,74,30.46,10.0,Calm,Calm,-,N/A,,Clear,0,2013-11-30 00:55:00
8:15 PM,34.0,27.1,76,30.46,10.0,Calm,Calm,-,N/A,,Clear,0,2013-11-30 01:15:00
8:35 PM,33.1,26.8,78,30.47,10.0,Calm,Calm,-,N/A,,Clear,0,2013-11-30 01:35:00
8:55 PM,33.3,27.5,79,30.47,10.0,Calm,Calm,-,N/A,,Clear,0,2013-11-30 01:55:00
9:15 PM,32.5,27.1,80,30.47,10.0,Calm,Calm,-,N/A,,Clear,0,2013-11-30 02:15:00
9:35 PM,31.1,27.0,85,30.47,10.0,SE,3.5,-,N/A,,Clear,140,2013-11-30 02:35:00
9:55 PM,30.7,26.8,85,30.47,10.0,Calm,Calm,-,N/A,,Clear,0,2013-11-30 02:55:00
10:15 PM,31.5,26.4,82,30.47,10.0,Calm,Calm,-,N/A,,Clear,0,2013-11-30 03:15:00
10:35 PM,30.9,25.9,82,30.47,10.0,Calm,Calm,-,N/A,,Clear,0,2013-11-30 03:35:00
10:55 PM,31.1,27.0,85,30.47,10.0,Calm,Calm,-,N/A,,Clear,0,2013-11-30 03:55:00
11:15 PM,29.7,26.4,88,30.47,10.0,Calm,Calm,-,N/A,,Clear,0,2013-11-30 04:15:00
11:35 PM,29.5,27.0,90,30.47,10.0,Calm,Calm,-,N/A,,Clear,0,2013-11-30 04:35:00
11:55 PM,29.3,26.6,90,30.47,10.0,Calm,Calm,-,N/A,,Clear,0,2013-11-30 04:55:00